sensor_id;sensor_type;location;lat;lon;timestamp;temperature;humidity
53422;DHT22;39319;52.944;5.928;2022-09-13T00:00:34;20.30;99.90
53422;DHT22;39319;52.944;5.928;2022-09-13T00:03:00;20.20;99.90
53422;DHT22;39319;52.944;5.928;2022-09-13T00:05:26;20.20;99.90
53422;DHT22;39319;52.944;5.928;2022-09-13T00:07:52;20.20;99.90
53422;DHT22;39319;52.944;5.928;2022-09-13T00:10:18;20.20;99.90
53422;DHT22;39319;52.944;5.928;2022-09-13T00:12:44;20.20;99.90
53422;DHT22;39319;52.944;5.928;2022-09-13T00:15:10;20.20;99.90
53422;DHT22;39319;52.944;5.928;2022-09-13T00:17:36;20.20;99.90
53422;DHT22;39319;52.944;5.928;2022-09-13T00:20:02;20.20;99.90
53422;DHT22;39319;52.944;5.928;2022-09-13T00:22:28;20.20;99.90
53422;DHT22;39319;52.944;5.928;2022-09-13T00:24:53;20.10;99.90
53422;DHT22;39319;52.944;5.928;2022-09-13T00:27:19;20.10;99.90
53422;DHT22;39319;52.944;5.928;2022-09-13T00:29:45;20.10;99.90
53422;DHT22;39319;52.944;5.928;2022-09-13T00:32:11;20.00;99.90
53422;DHT22;39319;52.944;5.928;2022-09-13T00:34:37;20.10;99.90
53422;DHT22;39319;52.944;5.928;2022-09-13T00:37:03;20.00;99.90
53422;DHT22;39319;52.944;5.928;2022-09-13T00:39:29;20.00;99.90
53422;DHT22;39319;52.944;5.928;2022-09-13T00:41:54;19.90;99.90
53422;DHT22;39319;52.944;5.928;2022-09-13T00:47:23;19.90;99.90
53422;DHT22;39319;52.944;5.928;2022-09-13T00:49:54;20.00;99.90
53422;DHT22;39319;52.944;5.928;2022-09-13T00:52:23;20.00;99.90
53422;DHT22;39319;52.944;5.928;2022-09-13T00:55:00;20.00;99.90
53422;DHT22;39319;52.944;5.928;2022-09-13T00:57:27;20.00;99.90
53422;DHT22;39319;52.944;5.928;2022-09-13T00:59:58;20.00;99.90
53422;DHT22;39319;52.944;5.928;2022-09-13T01:02:31;20.00;99.90
53422;DHT22;39319;52.944;5.928;2022-09-13T01:04:57;20.00;99.90
53422;DHT22;39319;52.944;5.928;2022-09-13T01:07:23;19.90;99.90
53422;DHT22;39319;52.944;5.928;2022-09-13T01:09:49;20.00;99.90
53422;DHT22;39319;52.944;5.928;2022-09-13T01:15:03;20.00;99.90
53422;DHT22;39319;52.944;5.928;2022-09-13T01:17:30;20.00;99.90
53422;DHT22;39319;52.944;5.928;2022-09-13T01:19:57;20.00;99.90
53422;DHT22;39319;52.944;5.928;2022-09-13T01:27:56;20.00;99.90
53422;DHT22;39319;52.944;5.928;2022-09-13T01:30:24;20.00;99.90
53422;DHT22;39319;52.944;5.928;2022-09-13T01:39:04;20.00;99.90
53422;DHT22;39319;52.944;5.928;2022-09-13T01:44:20;19.90;99.90
53422;DHT22;39319;52.944;5.928;2022-09-13T01:55:44;19.90;99.90
53422;DHT22;39319;52.944;5.928;2022-09-13T01:58:27;20.00;99.90
53422;DHT22;39319;52.944;5.928;2022-09-13T02:01:05;19.90;99.90
53422;DHT22;39319;52.944;5.928;2022-09-13T02:03:36;20.00;99.90
53422;DHT22;39319;52.944;5.928;2022-09-13T02:06:10;20.00;99.90
53422;DHT22;39319;52.944;5.928;2022-09-13T02:08:40;20.00;99.90
53422;DHT22;39319;52.944;5.928;2022-09-13T02:11:12;20.00;99.90
53422;DHT22;39319;52.944;5.928;2022-09-13T02:14:03;20.00;99.90
53422;DHT22;39319;52.944;5.928;2022-09-13T02:19:13;20.00;99.90
53422;DHT22;39319;52.944;5.928;2022-09-13T02:21:43;20.00;99.90
53422;DHT22;39319;52.944;5.928;2022-09-13T02:24:14;20.00;99.90
53422;DHT22;39319;52.944;5.928;2022-09-13T02:26:43;19.90;99.90
53422;DHT22;39319;52.944;5.928;2022-09-13T02:29:16;20.00;99.90
53422;DHT22;39319;52.944;5.928;2022-09-13T02:35:06;20.10;99.90
53422;DHT22;39319;52.944;5.928;2022-09-13T02:37:37;20.00;99.90
53422;DHT22;39319;52.944;5.928;2022-09-13T02:40:09;20.00;99.90
53422;DHT22;39319;52.944;5.928;2022-09-13T02:42:42;20.00;99.90
53422;DHT22;39319;52.944;5.928;2022-09-13T02:45:10;20.00;99.90
53422;DHT22;39319;52.944;5.928;2022-09-13T02:47:46;20.00;99.90
53422;DHT22;39319;52.944;5.928;2022-09-13T02:50:47;19.90;99.90
53422;DHT22;39319;52.944;5.928;2022-09-13T02:58:45;20.00;99.90
53422;DHT22;39319;52.944;5.928;2022-09-13T03:01:13;20.00;99.90
53422;DHT22;39319;52.944;5.928;2022-09-13T03:03:39;19.90;99.90
53422;DHT22;39319;52.944;5.928;2022-09-13T03:06:05;20.00;99.90
53422;DHT22;39319;52.944;5.928;2022-09-13T03:08:31;19.90;99.90
53422;DHT22;39319;52.944;5.928;2022-09-13T03:11:11;20.00;99.90
53422;DHT22;39319;52.944;5.928;2022-09-13T03:30:23;20.00;99.90
53422;DHT22;39319;52.944;5.928;2022-09-13T03:32:56;20.00;99.90
53422;DHT22;39319;52.944;5.928;2022-09-13T03:35:52;20.00;99.90
53422;DHT22;39319;52.944;5.928;2022-09-13T03:38:25;20.00;99.90
53422;DHT22;39319;52.944;5.928;2022-09-13T03:41:03;19.90;99.90
53422;DHT22;39319;52.944;5.928;2022-09-13T03:43:40;19.90;99.90
53422;DHT22;39319;52.944;5.928;2022-09-13T03:46:12;19.90;99.90
53422;DHT22;39319;52.944;5.928;2022-09-13T03:48:40;19.90;99.90
53422;DHT22;39319;52.944;5.928;2022-09-13T03:51:06;19.90;99.90
53422;DHT22;39319;52.944;5.928;2022-09-13T03:53:35;19.90;99.90
53422;DHT22;39319;52.944;5.928;2022-09-13T03:56:15;19.90;99.90
53422;DHT22;39319;52.944;5.928;2022-09-13T03:58:45;19.80;99.90
53422;DHT22;39319;52.944;5.928;2022-09-13T04:01:11;19.80;99.90
53422;DHT22;39319;52.944;5.928;2022-09-13T04:03:37;19.70;99.90
53422;DHT22;39319;52.944;5.928;2022-09-13T04:06:04;19.70;99.90
53422;DHT22;39319;52.944;5.928;2022-09-13T04:08:32;19.70;99.90
53422;DHT22;39319;52.944;5.928;2022-09-13T04:10:58;19.70;99.90
53422;DHT22;39319;52.944;5.928;2022-09-13T04:13:26;19.70;99.90
53422;DHT22;39319;52.944;5.928;2022-09-13T04:15:52;19.70;99.90
53422;DHT22;39319;52.944;5.928;2022-09-13T04:18:18;19.70;99.90
53422;DHT22;39319;52.944;5.928;2022-09-13T04:20:51;19.70;99.90
53422;DHT22;39319;52.944;5.928;2022-09-13T04:23:17;19.70;99.90
53422;DHT22;39319;52.944;5.928;2022-09-13T04:25:43;19.60;99.90
53422;DHT22;39319;52.944;5.928;2022-09-13T04:28:08;19.70;99.90
53422;DHT22;39319;52.944;5.928;2022-09-13T04:30:34;19.70;99.90
53422;DHT22;39319;52.944;5.928;2022-09-13T04:32:59;19.60;99.90
53422;DHT22;39319;52.944;5.928;2022-09-13T04:35:25;19.60;99.90
53422;DHT22;39319;52.944;5.928;2022-09-13T04:37:54;19.60;99.90
53422;DHT22;39319;52.944;5.928;2022-09-13T04:40:21;19.60;99.90
53422;DHT22;39319;52.944;5.928;2022-09-13T04:42:48;19.60;99.90
53422;DHT22;39319;52.944;5.928;2022-09-13T04:45:13;19.70;99.90
53422;DHT22;39319;52.944;5.928;2022-09-13T04:47:39;19.60;99.90
53422;DHT22;39319;52.944;5.928;2022-09-13T04:50:05;19.60;99.90
53422;DHT22;39319;52.944;5.928;2022-09-13T04:52:32;19.60;99.90
53422;DHT22;39319;52.944;5.928;2022-09-13T04:54:58;19.60;99.90
53422;DHT22;39319;52.944;5.928;2022-09-13T04:57:29;19.60;99.90
53422;DHT22;39319;52.944;5.928;2022-09-13T04:59:55;19.60;99.90
53422;DHT22;39319;52.944;5.928;2022-09-13T05:02:22;19.70;99.90
53422;DHT22;39319;52.944;5.928;2022-09-13T05:04:48;19.60;99.90
53422;DHT22;39319;52.944;5.928;2022-09-13T05:07:13;19.60;99.90
53422;DHT22;39319;52.944;5.928;2022-09-13T05:09:39;19.60;99.90
53422;DHT22;39319;52.944;5.928;2022-09-13T05:12:05;20.10;99.90
53422;DHT22;39319;52.944;5.928;2022-09-13T05:14:30;19.60;99.90
53422;DHT22;39319;52.944;5.928;2022-09-13T05:16:59;19.50;99.90
53422;DHT22;39319;52.944;5.928;2022-09-13T05:19:25;19.60;99.90
53422;DHT22;39319;52.944;5.928;2022-09-13T05:21:50;19.60;99.90
53422;DHT22;39319;52.944;5.928;2022-09-13T05:24:16;19.50;99.90
53422;DHT22;39319;52.944;5.928;2022-09-13T05:26:44;19.60;99.90
53422;DHT22;39319;52.944;5.928;2022-09-13T05:29:10;19.60;99.90
53422;DHT22;39319;52.944;5.928;2022-09-13T05:31:38;19.60;99.90
53422;DHT22;39319;52.944;5.928;2022-09-13T05:34:09;19.50;99.90
53422;DHT22;39319;52.944;5.928;2022-09-13T05:36:35;19.50;99.90
53422;DHT22;39319;52.944;5.928;2022-09-13T05:39:02;19.60;99.90
53422;DHT22;39319;52.944;5.928;2022-09-13T05:41:28;19.40;99.90
53422;DHT22;39319;52.944;5.928;2022-09-13T05:43:53;19.50;99.90
53422;DHT22;39319;52.944;5.928;2022-09-13T05:46:20;19.50;99.90
53422;DHT22;39319;52.944;5.928;2022-09-13T05:48:47;19.40;99.90
53422;DHT22;39319;52.944;5.928;2022-09-13T05:51:19;19.50;99.90
53422;DHT22;39319;52.944;5.928;2022-09-13T05:53:47;19.40;99.90
53422;DHT22;39319;52.944;5.928;2022-09-13T05:56:19;19.40;99.90
53422;DHT22;39319;52.944;5.928;2022-09-13T05:58:46;19.50;99.90
53422;DHT22;39319;52.944;5.928;2022-09-13T06:01:14;19.40;99.90
53422;DHT22;39319;52.944;5.928;2022-09-13T06:03:40;19.60;99.90
53422;DHT22;39319;52.944;5.928;2022-09-13T06:06:06;19.40;99.90
53422;DHT22;39319;52.944;5.928;2022-09-13T06:08:34;19.40;99.90
53422;DHT22;39319;52.944;5.928;2022-09-13T06:11:07;19.40;99.90
53422;DHT22;39319;52.944;5.928;2022-09-13T06:13:34;19.50;99.90
53422;DHT22;39319;52.944;5.928;2022-09-13T06:16:02;19.40;99.90
53422;DHT22;39319;52.944;5.928;2022-09-13T06:18:28;19.40;99.90
53422;DHT22;39319;52.944;5.928;2022-09-13T06:20:59;19.50;99.90
53422;DHT22;39319;52.944;5.928;2022-09-13T06:23:26;19.40;99.90
53422;DHT22;39319;52.944;5.928;2022-09-13T06:25:59;19.40;99.90
53422;DHT22;39319;52.944;5.928;2022-09-13T06:28:25;19.40;99.90
53422;DHT22;39319;52.944;5.928;2022-09-13T06:30:51;19.50;99.90
53422;DHT22;39319;52.944;5.928;2022-09-13T06:33:16;19.40;99.90
53422;DHT22;39319;52.944;5.928;2022-09-13T06:35:42;19.40;99.90
53422;DHT22;39319;52.944;5.928;2022-09-13T06:38:08;19.40;99.90
53422;DHT22;39319;52.944;5.928;2022-09-13T06:40:33;19.40;99.90
53422;DHT22;39319;52.944;5.928;2022-09-13T06:42:59;19.50;99.90
53422;DHT22;39319;52.944;5.928;2022-09-13T06:45:24;19.50;99.90
53422;DHT22;39319;52.944;5.928;2022-09-13T06:47:52;19.50;99.90
53422;DHT22;39319;52.944;5.928;2022-09-13T06:50:20;19.50;99.90
53422;DHT22;39319;52.944;5.928;2022-09-13T06:52:46;19.50;99.90
53422;DHT22;39319;52.944;5.928;2022-09-13T06:55:11;19.50;99.90
53422;DHT22;39319;52.944;5.928;2022-09-13T06:57:37;19.60;99.90
53422;DHT22;39319;52.944;5.928;2022-09-13T07:00:03;19.60;99.90
53422;DHT22;39319;52.944;5.928;2022-09-13T07:02:31;19.60;99.90
53422;DHT22;39319;52.944;5.928;2022-09-13T07:04:57;19.60;99.90
53422;DHT22;39319;52.944;5.928;2022-09-13T07:07:22;19.70;99.90
53422;DHT22;39319;52.944;5.928;2022-09-13T07:09:48;19.70;99.90
53422;DHT22;39319;52.944;5.928;2022-09-13T07:12:14;19.70;99.90
53422;DHT22;39319;52.944;5.928;2022-09-13T07:14:42;19.70;99.90
53422;DHT22;39319;52.944;5.928;2022-09-13T07:17:08;19.80;99.90
53422;DHT22;39319;52.944;5.928;2022-09-13T07:19:33;19.60;99.90
53422;DHT22;39319;52.944;5.928;2022-09-13T07:21:59;19.80;99.90
53422;DHT22;39319;52.944;5.928;2022-09-13T07:24:25;19.80;99.90
53422;DHT22;39319;52.944;5.928;2022-09-13T07:26:51;19.80;99.90
53422;DHT22;39319;52.944;5.928;2022-09-13T07:29:20;19.80;99.90
53422;DHT22;39319;52.944;5.928;2022-09-13T07:31:49;19.80;99.90
53422;DHT22;39319;52.944;5.928;2022-09-13T07:34:17;19.80;99.90
53422;DHT22;39319;52.944;5.928;2022-09-13T07:36:44;19.80;99.90
53422;DHT22;39319;52.944;5.928;2022-09-13T07:39:12;19.80;99.90
53422;DHT22;39319;52.944;5.928;2022-09-13T07:41:37;19.90;99.90
53422;DHT22;39319;52.944;5.928;2022-09-13T07:44:04;19.90;99.90
53422;DHT22;39319;52.944;5.928;2022-09-13T07:46:34;19.90;99.90
53422;DHT22;39319;52.944;5.928;2022-09-13T07:49:06;20.00;99.90
53422;DHT22;39319;52.944;5.928;2022-09-13T07:51:34;19.90;99.90
53422;DHT22;39319;52.944;5.928;2022-09-13T07:54:03;19.90;99.90
53422;DHT22;39319;52.944;5.928;2022-09-13T07:56:34;19.90;99.90
53422;DHT22;39319;52.944;5.928;2022-09-13T07:59:02;20.00;99.90
53422;DHT22;39319;52.944;5.928;2022-09-13T08:01:37;20.00;99.90
53422;DHT22;39319;52.944;5.928;2022-09-13T08:04:08;19.90;99.70
53422;DHT22;39319;52.944;5.928;2022-09-13T08:06:36;19.90;99.60
53422;DHT22;39319;52.944;5.928;2022-09-13T08:09:03;20.00;99.50
53422;DHT22;39319;52.944;5.928;2022-09-13T08:11:31;20.00;99.40
53422;DHT22;39319;52.944;5.928;2022-09-13T08:13:57;20.00;99.30
53422;DHT22;39319;52.944;5.928;2022-09-13T08:16:24;20.10;99.10
53422;DHT22;39319;52.944;5.928;2022-09-13T08:18:52;20.00;99.10
53422;DHT22;39319;52.944;5.928;2022-09-13T08:21:19;20.10;98.50
53422;DHT22;39319;52.944;5.928;2022-09-13T08:23:45;20.10;98.20
53422;DHT22;39319;52.944;5.928;2022-09-13T08:26:11;20.00;98.00
53422;DHT22;39319;52.944;5.928;2022-09-13T08:28:38;20.00;98.30
53422;DHT22;39319;52.944;5.928;2022-09-13T08:31:13;20.10;98.00
53422;DHT22;39319;52.944;5.928;2022-09-13T08:33:45;20.00;97.60
53422;DHT22;39319;52.944;5.928;2022-09-13T08:36:13;20.00;97.70
53422;DHT22;39319;52.944;5.928;2022-09-13T08:38:39;20.00;97.80
53422;DHT22;39319;52.944;5.928;2022-09-13T08:44:28;20.00;97.50
53422;DHT22;39319;52.944;5.928;2022-09-13T08:49:52;20.10;97.10
53422;DHT22;39319;52.944;5.928;2022-09-13T08:54:49;20.20;97.20
53422;DHT22;39319;52.944;5.928;2022-09-13T08:57:29;20.20;96.60
53422;DHT22;39319;52.944;5.928;2022-09-13T09:05:47;20.10;96.50
53422;DHT22;39319;52.944;5.928;2022-09-13T09:11:01;20.10;96.60
53422;DHT22;39319;52.944;5.928;2022-09-13T09:13:36;20.20;96.60
53422;DHT22;39319;52.944;5.928;2022-09-13T09:16:15;20.20;96.70
53422;DHT22;39319;52.944;5.928;2022-09-13T09:18:47;20.30;95.90
53422;DHT22;39319;52.944;5.928;2022-09-13T09:21:16;20.40;95.60
53422;DHT22;39319;52.944;5.928;2022-09-13T09:23:51;20.40;95.40
53422;DHT22;39319;52.944;5.928;2022-09-13T09:26:25;20.40;94.90
53422;DHT22;39319;52.944;5.928;2022-09-13T09:28:56;20.40;95.10
53422;DHT22;39319;52.944;5.928;2022-09-13T09:37:10;20.90;94.20
53422;DHT22;39319;52.944;5.928;2022-09-13T09:39:38;21.10;93.60
53422;DHT22;39319;52.944;5.928;2022-09-13T09:42:23;21.30;93.50
53422;DHT22;39319;52.944;5.928;2022-09-13T09:44:58;21.40;92.70
53422;DHT22;39319;52.944;5.928;2022-09-13T09:47:27;21.30;92.20
53422;DHT22;39319;52.944;5.928;2022-09-13T09:50:12;21.30;92.30
53422;DHT22;39319;52.944;5.928;2022-09-13T09:53:08;21.40;91.90
53422;DHT22;39319;52.944;5.928;2022-09-13T09:55:45;21.30;91.70
53422;DHT22;39319;52.944;5.928;2022-09-13T09:58:13;21.30;91.80
53422;DHT22;39319;52.944;5.928;2022-09-13T10:00:55;21.40;91.90
53422;DHT22;39319;52.944;5.928;2022-09-13T10:03:27;21.50;91.50
53422;DHT22;39319;52.944;5.928;2022-09-13T10:06:04;21.70;91.50
53422;DHT22;39319;52.944;5.928;2022-09-13T10:08:33;21.90;90.90
53422;DHT22;39319;52.944;5.928;2022-09-13T10:11:00;22.10;90.30
53422;DHT22;39319;52.944;5.928;2022-09-13T10:13:27;22.30;90.00
53422;DHT22;39319;52.944;5.928;2022-09-13T10:15:58;22.40;90.00
53422;DHT22;39319;52.944;5.928;2022-09-13T10:18:29;22.40;90.20
53422;DHT22;39319;52.944;5.928;2022-09-13T10:21:06;22.50;90.00
53422;DHT22;39319;52.944;5.928;2022-09-13T10:23:35;22.70;90.60
53422;DHT22;39319;52.944;5.928;2022-09-13T10:26:22;23.00;90.30
53422;DHT22;39319;52.944;5.928;2022-09-13T10:28:59;23.20;89.20
53422;DHT22;39319;52.944;5.928;2022-09-13T10:31:41;23.30;87.50
53422;DHT22;39319;52.944;5.928;2022-09-13T10:34:17;23.10;87.80
53422;DHT22;39319;52.944;5.928;2022-09-13T10:37:03;22.80;87.10
53422;DHT22;39319;52.944;5.928;2022-09-13T10:39:33;22.90;89.00
53422;DHT22;39319;52.944;5.928;2022-09-13T10:42:05;23.20;88.40
53422;DHT22;39319;52.944;5.928;2022-09-13T10:44:51;23.50;86.60
53422;DHT22;39319;52.944;5.928;2022-09-13T10:47:22;23.80;85.90
53422;DHT22;39319;52.944;5.928;2022-09-13T10:49:51;24.10;84.70
53422;DHT22;39319;52.944;5.928;2022-09-13T10:52:39;24.30;84.60
53422;DHT22;39319;52.944;5.928;2022-09-13T10:55:34;24.30;83.80
53422;DHT22;39319;52.944;5.928;2022-09-13T11:06:10;24.70;80.20
53422;DHT22;39319;52.944;5.928;2022-09-13T11:11:44;25.00;79.20
53422;DHT22;39319;52.944;5.928;2022-09-13T11:15:03;25.10;79.20
53422;DHT22;39319;52.944;5.928;2022-09-13T11:23:05;25.50;77.20
53422;DHT22;39319;52.944;5.928;2022-09-13T11:25:55;25.50;76.90
53422;DHT22;39319;52.944;5.928;2022-09-13T11:31:34;25.70;76.80
53422;DHT22;39319;52.944;5.928;2022-09-13T11:39:56;25.90;72.70
53422;DHT22;39319;52.944;5.928;2022-09-13T11:48:06;25.70;74.20
53422;DHT22;39319;52.944;5.928;2022-09-13T11:56:38;25.70;75.00
53422;DHT22;39319;52.944;5.928;2022-09-13T12:01:59;25.70;74.80
53422;DHT22;39319;52.944;5.928;2022-09-13T12:04:37;25.80;75.80
53422;DHT22;39319;52.944;5.928;2022-09-13T12:07:11;25.80;74.10
53422;DHT22;39319;52.944;5.928;2022-09-13T12:09:52;25.90;74.00
53422;DHT22;39319;52.944;5.928;2022-09-13T12:12:20;25.90;74.40
53422;DHT22;39319;52.944;5.928;2022-09-13T12:15:28;25.80;71.50
53422;DHT22;39319;52.944;5.928;2022-09-13T12:20:51;25.90;72.00
53422;DHT22;39319;52.944;5.928;2022-09-13T12:23:34;25.80;71.00
53422;DHT22;39319;52.944;5.928;2022-09-13T12:28:39;26.10;72.10
53422;DHT22;39319;52.944;5.928;2022-09-13T12:31:12;26.20;73.00
53422;DHT22;39319;52.944;5.928;2022-09-13T12:33:41;26.40;71.30
53422;DHT22;39319;52.944;5.928;2022-09-13T12:50:53;26.80;69.70
53422;DHT22;39319;52.944;5.928;2022-09-13T13:01:20;26.80;71.30
53422;DHT22;39319;52.944;5.928;2022-09-13T13:03:56;26.60;71.40
53422;DHT22;39319;52.944;5.928;2022-09-13T13:06:36;26.60;72.70
53422;DHT22;39319;52.944;5.928;2022-09-13T13:11:48;26.80;71.40
53422;DHT22;39319;52.944;5.928;2022-09-13T13:17:37;26.70;71.90
53422;DHT22;39319;52.944;5.928;2022-09-13T13:23:25;26.80;72.50
53422;DHT22;39319;52.944;5.928;2022-09-13T13:33:50;26.70;70.50
53422;DHT22;39319;52.944;5.928;2022-09-13T13:36:24;26.70;70.60
53422;DHT22;39319;52.944;5.928;2022-09-13T13:38:52;26.60;70.80
53422;DHT22;39319;52.944;5.928;2022-09-13T13:46:42;26.40;69.60
53422;DHT22;39319;52.944;5.928;2022-09-13T13:49:42;26.40;70.30
53422;DHT22;39319;52.944;5.928;2022-09-13T14:00:03;26.20;69.40
53422;DHT22;39319;52.944;5.928;2022-09-13T14:21:43;26.00;69.00
53422;DHT22;39319;52.944;5.928;2022-09-13T14:24:19;26.00;68.50
53422;DHT22;39319;52.944;5.928;2022-09-13T14:26:46;25.90;68.50
53422;DHT22;39319;52.944;5.928;2022-09-13T14:29:17;25.80;68.80
53422;DHT22;39319;52.944;5.928;2022-09-13T14:31:51;25.80;70.10
53422;DHT22;39319;52.944;5.928;2022-09-13T14:36:59;25.70;69.40
53422;DHT22;39319;52.944;5.928;2022-09-13T14:39:29;25.50;69.70
53422;DHT22;39319;52.944;5.928;2022-09-13T14:41:59;25.50;70.30
53422;DHT22;39319;52.944;5.928;2022-09-13T14:44:26;25.60;69.10
53422;DHT22;39319;52.944;5.928;2022-09-13T14:47:01;25.70;70.00
53422;DHT22;39319;52.944;5.928;2022-09-13T14:49:34;25.90;69.30
53422;DHT22;39319;52.944;5.928;2022-09-13T14:52:15;26.10;69.90
53422;DHT22;39319;52.944;5.928;2022-09-13T14:54:47;26.20;68.80
53422;DHT22;39319;52.944;5.928;2022-09-13T14:57:36;26.40;68.20
53422;DHT22;39319;52.944;5.928;2022-09-13T15:00:18;26.40;67.50
53422;DHT22;39319;52.944;5.928;2022-09-13T15:05:17;26.20;66.50
53422;DHT22;39319;52.944;5.928;2022-09-13T15:07:43;26.00;67.20
53422;DHT22;39319;52.944;5.928;2022-09-13T15:10:27;25.80;67.50
53422;DHT22;39319;52.944;5.928;2022-09-13T15:15:32;25.70;67.60
53422;DHT22;39319;52.944;5.928;2022-09-13T15:23:27;25.60;69.30
53422;DHT22;39319;52.944;5.928;2022-09-13T15:25:56;25.30;68.90
53422;DHT22;39319;52.944;5.928;2022-09-13T15:28:27;25.20;68.80
53422;DHT22;39319;52.944;5.928;2022-09-13T15:30:55;25.00;69.60
53422;DHT22;39319;52.944;5.928;2022-09-13T15:33:24;24.90;70.10
53422;DHT22;39319;52.944;5.928;2022-09-13T15:35:50;24.70;70.40
53422;DHT22;39319;52.944;5.928;2022-09-13T15:38:29;24.40;69.90
53422;DHT22;39319;52.944;5.928;2022-09-13T15:41:11;24.30;70.60
53422;DHT22;39319;52.944;5.928;2022-09-13T15:43:38;24.20;71.30
53422;DHT22;39319;52.944;5.928;2022-09-13T15:46:04;24.10;72.20
53422;DHT22;39319;52.944;5.928;2022-09-13T15:48:32;24.00;71.90
53422;DHT22;39319;52.944;5.928;2022-09-13T15:51:13;23.90;72.70
53422;DHT22;39319;52.944;5.928;2022-09-13T15:53:41;23.80;73.20
53422;DHT22;39319;52.944;5.928;2022-09-13T15:56:11;23.70;73.30
53422;DHT22;39319;52.944;5.928;2022-09-13T15:58:37;23.70;72.80
53422;DHT22;39319;52.944;5.928;2022-09-13T16:01:03;23.60;72.50
53422;DHT22;39319;52.944;5.928;2022-09-13T16:03:29;23.50;74.10
53422;DHT22;39319;52.944;5.928;2022-09-13T16:05:55;23.50;74.00
53422;DHT22;39319;52.944;5.928;2022-09-13T16:08:23;23.30;74.10
53422;DHT22;39319;52.944;5.928;2022-09-13T16:10:49;23.20;74.90
53422;DHT22;39319;52.944;5.928;2022-09-13T16:13:15;23.20;74.00
53422;DHT22;39319;52.944;5.928;2022-09-13T16:15:41;23.10;74.90
53422;DHT22;39319;52.944;5.928;2022-09-13T16:18:07;23.00;74.70
53422;DHT22;39319;52.944;5.928;2022-09-13T16:20:34;23.00;74.20
53422;DHT22;39319;52.944;5.928;2022-09-13T16:23:00;22.90;74.00
53422;DHT22;39319;52.944;5.928;2022-09-13T16:25:25;22.80;74.40
53422;DHT22;39319;52.944;5.928;2022-09-13T16:27:51;22.80;75.00
53422;DHT22;39319;52.944;5.928;2022-09-13T16:30:20;22.70;74.90
53422;DHT22;39319;52.944;5.928;2022-09-13T16:32:47;22.70;74.70
53422;DHT22;39319;52.944;5.928;2022-09-13T16:35:12;22.60;74.60
53422;DHT22;39319;52.944;5.928;2022-09-13T16:37:39;22.50;75.30
53422;DHT22;39319;52.944;5.928;2022-09-13T16:40:06;22.50;75.00
53422;DHT22;39319;52.944;5.928;2022-09-13T16:42:33;22.40;76.20
53422;DHT22;39319;52.944;5.928;2022-09-13T16:44:59;22.40;76.90
53422;DHT22;39319;52.944;5.928;2022-09-13T16:47:25;22.40;77.30
53422;DHT22;39319;52.944;5.928;2022-09-13T16:49:50;22.40;77.70
53422;DHT22;39319;52.944;5.928;2022-09-13T16:52:17;22.30;76.10
53422;DHT22;39319;52.944;5.928;2022-09-13T16:54:43;22.20;77.10
53422;DHT22;39319;52.944;5.928;2022-09-13T16:57:11;22.20;77.10
53422;DHT22;39319;52.944;5.928;2022-09-13T16:59:38;22.10;76.30
53422;DHT22;39319;52.944;5.928;2022-09-13T17:02:07;22.10;76.10
53422;DHT22;39319;52.944;5.928;2022-09-13T17:04:34;22.00;76.80
53422;DHT22;39319;52.944;5.928;2022-09-13T17:06:59;22.00;76.90
53422;DHT22;39319;52.944;5.928;2022-09-13T17:09:27;21.90;77.40
53422;DHT22;39319;52.944;5.928;2022-09-13T17:11:53;21.90;77.30
53422;DHT22;39319;52.944;5.928;2022-09-13T17:14:18;21.90;77.40
53422;DHT22;39319;52.944;5.928;2022-09-13T17:16:52;21.80;78.20
53422;DHT22;39319;52.944;5.928;2022-09-13T17:19:23;21.80;78.90
53422;DHT22;39319;52.944;5.928;2022-09-13T17:21:50;21.70;78.60
53422;DHT22;39319;52.944;5.928;2022-09-13T17:24:17;21.60;79.20
53422;DHT22;39319;52.944;5.928;2022-09-13T17:26:43;21.60;78.10
53422;DHT22;39319;52.944;5.928;2022-09-13T17:29:11;21.50;77.60
53422;DHT22;39319;52.944;5.928;2022-09-13T17:31:37;21.50;78.40
53422;DHT22;39319;52.944;5.928;2022-09-13T17:34:03;21.50;78.30
53422;DHT22;39319;52.944;5.928;2022-09-13T17:36:29;21.40;79.90
53422;DHT22;39319;52.944;5.928;2022-09-13T17:38:56;21.30;79.90
53422;DHT22;39319;52.944;5.928;2022-09-13T17:41:24;21.30;80.00
53422;DHT22;39319;52.944;5.928;2022-09-13T17:43:51;21.20;79.70
53422;DHT22;39319;52.944;5.928;2022-09-13T17:46:21;21.10;80.10
53422;DHT22;39319;52.944;5.928;2022-09-13T17:48:51;21.10;80.80
53422;DHT22;39319;52.944;5.928;2022-09-13T17:51:29;21.00;81.60
53422;DHT22;39319;52.944;5.928;2022-09-13T17:53:57;21.00;81.70
53422;DHT22;39319;52.944;5.928;2022-09-13T17:58:54;20.80;81.50
53422;DHT22;39319;52.944;5.928;2022-09-13T18:01:20;20.80;81.90
53422;DHT22;39319;52.944;5.928;2022-09-13T18:03:46;20.80;82.40
53422;DHT22;39319;52.944;5.928;2022-09-13T18:06:12;20.70;82.70
53422;DHT22;39319;52.944;5.928;2022-09-13T18:08:40;20.70;82.40
53422;DHT22;39319;52.944;5.928;2022-09-13T18:11:12;20.70;82.90
53422;DHT22;39319;52.944;5.928;2022-09-13T18:13:39;20.60;83.00
53422;DHT22;39319;52.944;5.928;2022-09-13T18:16:14;20.60;83.50
53422;DHT22;39319;52.944;5.928;2022-09-13T18:18:40;20.60;83.30
53422;DHT22;39319;52.944;5.928;2022-09-13T18:21:06;20.60;83.40
53422;DHT22;39319;52.944;5.928;2022-09-13T18:23:33;20.60;83.90
53422;DHT22;39319;52.944;5.928;2022-09-13T18:26:10;20.50;84.00
53422;DHT22;39319;52.944;5.928;2022-09-13T18:28:35;20.40;83.80
53422;DHT22;39319;52.944;5.928;2022-09-13T18:31:03;20.40;84.20
53422;DHT22;39319;52.944;5.928;2022-09-13T18:33:34;20.40;84.10
53422;DHT22;39319;52.944;5.928;2022-09-13T18:36:03;20.40;85.20
53422;DHT22;39319;52.944;5.928;2022-09-13T18:38:33;20.30;84.90
53422;DHT22;39319;52.944;5.928;2022-09-13T18:41:05;20.30;84.60
53422;DHT22;39319;52.944;5.928;2022-09-13T18:43:31;20.20;84.90
53422;DHT22;39319;52.944;5.928;2022-09-13T18:46:02;20.10;84.80
53422;DHT22;39319;52.944;5.928;2022-09-13T18:48:40;20.00;85.40
53422;DHT22;39319;52.944;5.928;2022-09-13T18:51:17;20.00;85.90
53422;DHT22;39319;52.944;5.928;2022-09-13T18:53:44;19.90;86.40
53422;DHT22;39319;52.944;5.928;2022-09-13T18:56:12;19.80;86.70
53422;DHT22;39319;52.944;5.928;2022-09-13T18:58:39;19.80;87.50
53422;DHT22;39319;52.944;5.928;2022-09-13T19:01:08;19.70;86.50
53422;DHT22;39319;52.944;5.928;2022-09-13T19:03:35;19.60;86.50
53422;DHT22;39319;52.944;5.928;2022-09-13T19:08:33;19.50;86.70
53422;DHT22;39319;52.944;5.928;2022-09-13T19:10:59;19.40;86.30
53422;DHT22;39319;52.944;5.928;2022-09-13T19:13:28;19.40;86.50
53422;DHT22;39319;52.944;5.928;2022-09-13T19:15:57;19.40;87.40
53422;DHT22;39319;52.944;5.928;2022-09-13T19:18:23;19.40;86.60
53422;DHT22;39319;52.944;5.928;2022-09-13T19:20:49;19.40;87.10
53422;DHT22;39319;52.944;5.928;2022-09-13T19:23:15;19.30;87.00